sensor_id;sensor_type;location;lat;lon;timestamp;pressure;altitude;pressure_sealevel;temperature
69415;BMP280;56608;43.530;-5.652;2022-11-04T00:00:24;101826.37;;;13.90
69415;BMP280;56608;43.530;-5.652;2022-11-04T00:01:27;101830.13;;;13.93
69415;BMP280;56608;43.530;-5.652;2022-11-04T00:02:28;101829.81;;;13.91
69415;BMP280;56608;43.530;-5.652;2022-11-04T00:03:30;101826.44;;;13.87
69415;BMP280;56608;43.530;-5.652;2022-11-04T00:04:32;101827.53;;;13.89
69415;BMP280;56608;43.530;-5.652;2022-11-04T00:05:33;101822.69;;;13.84
69415;BMP280;56608;43.530;-5.652;2022-11-04T00:06:35;101818.12;;;13.81
69415;BMP280;56608;43.530;-5.652;2022-11-04T00:07:37;101814.34;;;13.79
69415;BMP280;56608;43.530;-5.652;2022-11-04T00:08:57;101818.88;;;13.82
69415;BMP280;56608;43.530;-5.652;2022-11-04T00:09:59;101818.03;;;13.85
69415;BMP280;56608;43.530;-5.652;2022-11-04T00:11:00;101818.88;;;13.82
69415;BMP280;56608;43.530;-5.652;2022-11-04T00:12:21;101825.47;;;13.81
69415;BMP280;56608;43.530;-5.652;2022-11-04T00:13:28;101819.31;;;13.80
69415;BMP280;56608;43.530;-5.652;2022-11-04T00:14:31;101819.63;;;13.82
69415;BMP280;56608;43.530;-5.652;2022-11-04T00:15:36;101818.88;;;13.82
69415;BMP280;56608;43.530;-5.652;2022-11-04T00:16:57;101817.28;;;13.84
69415;BMP280;56608;43.530;-5.652;2022-11-04T00:18:17;101816.81;;;13.86
69415;BMP280;56608;43.530;-5.652;2022-11-04T00:19:20;101821.81;;;13.87
69415;BMP280;56608;43.530;-5.652;2022-11-04T00:20:22;101817.91;;;13.88
69415;BMP280;56608;43.530;-5.652;2022-11-04T00:21:50;101815.97;;;13.89
69415;BMP280;56608;43.530;-5.652;2022-11-04T00:23:10;101820.19;;;13.90
69415;BMP280;56608;43.530;-5.652;2022-11-04T00:24:30;101822.16;;;13.89
69415;BMP280;56608;43.530;-5.652;2022-11-04T00:25:43;101808.53;;;13.93
69415;BMP280;56608;43.530;-5.652;2022-11-04T00:27:03;101826.91;;;13.98
69415;BMP280;56608;43.530;-5.652;2022-11-04T00:28:23;101813.84;;;13.96
69415;BMP280;56608;43.530;-5.652;2022-11-04T00:29:43;101808.75;;;13.98
69415;BMP280;56608;43.530;-5.652;2022-11-04T00:30:46;101808.75;;;13.98
69415;BMP280;56608;43.530;-5.652;2022-11-04T00:31:48;101810.59;;;14.01
69415;BMP280;56608;43.530;-5.652;2022-11-04T00:33:07;101800.22;;;14.00
69415;BMP280;56608;43.530;-5.652;2022-11-04T00:34:27;101814.41;;;14.04
69415;BMP280;56608;43.530;-5.652;2022-11-04T00:35:28;101803.25;;;14.02
69415;BMP280;56608;43.530;-5.652;2022-11-04T00:36:30;101810.09;;;14.06
69415;BMP280;56608;43.530;-5.652;2022-11-04T00:37:41;101811.69;;;14.04
69415;BMP280;56608;43.530;-5.652;2022-11-04T00:38:43;101809.31;;;14.06
69415;BMP280;56608;43.530;-5.652;2022-11-04T00:39:44;101812.38;;;14.08
69415;BMP280;56608;43.530;-5.652;2022-11-04T00:40:46;101820.47;;;14.08
69415;BMP280;56608;43.530;-5.652;2022-11-04T00:41:47;101803.50;;;14.07
69415;BMP280;56608;43.530;-5.652;2022-11-04T00:42:47;101802.75;;;14.07
69415;BMP280;56608;43.530;-5.652;2022-11-04T00:43:49;101795.72;;;14.10
69415;BMP280;56608;43.530;-5.652;2022-11-04T00:44:51;101793.75;;;14.10
69415;BMP280;56608;43.530;-5.652;2022-11-04T00:45:52;101790.75;;;14.08
69415;BMP280;56608;43.530;-5.652;2022-11-04T00:46:56;101786.53;;;14.07
69415;BMP280;56608;43.530;-5.652;2022-11-04T00:47:57;101795.81;;;14.06
69415;BMP280;56608;43.530;-5.652;2022-11-04T00:48:59;101791.69;;;14.01
69415;BMP280;56608;43.530;-5.652;2022-11-04T00:50:00;101804.44;;;14.01
69415;BMP280;56608;43.530;-5.652;2022-11-04T00:51:01;101792.87;;;14.00
69415;BMP280;56608;43.530;-5.652;2022-11-04T00:52:03;101805.63;;;14.00
69415;BMP280;56608;43.530;-5.652;2022-11-04T00:53:04;101795.69;;;13.97
69415;BMP280;56608;43.530;-5.652;2022-11-04T00:54:08;101791.03;;;13.97
69415;BMP280;56608;43.530;-5.652;2022-11-04T00:55:09;101803.34;;;13.98
69415;BMP280;56608;43.530;-5.652;2022-11-04T00:56:12;101792.22;;;13.96
69415;BMP280;56608;43.530;-5.652;2022-11-04T00:57:13;101798.38;;;13.97
69415;BMP280;56608;43.530;-5.652;2022-11-04T00:58:14;101794.72;;;13.91
69415;BMP280;56608;43.530;-5.652;2022-11-04T00:59:16;101802.34;;;13.92
69415;BMP280;56608;43.530;-5.652;2022-11-04T01:00:17;101801.94;;;13.94
69415;BMP280;56608;43.530;-5.652;2022-11-04T01:01:22;101794.25;;;13.92
69415;BMP280;56608;43.530;-5.652;2022-11-04T01:02:26;101799.25;;;13.94
69415;BMP280;56608;43.530;-5.652;2022-11-04T01:03:27;101791.47;;;13.96
69415;BMP280;56608;43.530;-5.652;2022-11-04T01:04:28;101797.62;;;13.96
69415;BMP280;56608;43.530;-5.652;2022-11-04T01:05:30;101805.41;;;13.94
69415;BMP280;56608;43.530;-5.652;2022-11-04T01:06:33;101800.41;;;13.93
69415;BMP280;56608;43.530;-5.652;2022-11-04T01:07:34;101795.00;;;13.93
69415;BMP280;56608;43.530;-5.652;2022-11-04T01:08:36;101784.97;;;13.93
69415;BMP280;56608;43.530;-5.652;2022-11-04T01:09:37;101788.09;;;13.92
69415;BMP280;56608;43.530;-5.652;2022-11-04T01:10:39;101788.84;;;13.92
69415;BMP280;56608;43.530;-5.652;2022-11-04T01:11:44;101786.47;;;13.94
69415;BMP280;56608;43.530;-5.652;2022-11-04T01:12:46;101792.31;;;13.93
69415;BMP280;56608;43.530;-5.652;2022-11-04T01:13:50;101789.19;;;13.94
69415;BMP280;56608;43.530;-5.652;2022-11-04T01:14:51;101783.03;;;13.94
69415;BMP280;56608;43.530;-5.652;2022-11-04T01:15:53;101781.50;;;13.93
69415;BMP280;56608;43.530;-5.652;2022-11-04T01:16:54;101791.12;;;13.94
69415;BMP280;56608;43.530;-5.652;2022-11-04T01:17:55;101806.59;;;13.93
69415;BMP280;56608;43.530;-5.652;2022-11-04T01:18:57;101789.59;;;13.93
69415;BMP280;56608;43.530;-5.652;2022-11-04T01:19:59;101793.50;;;13.92
69415;BMP280;56608;43.530;-5.652;2022-11-04T01:21:02;101787.78;;;13.90
69415;BMP280;56608;43.530;-5.652;2022-11-04T01:22:05;101795.13;;;13.89
69415;BMP280;56608;43.530;-5.652;2022-11-04T01:23:08;101788.84;;;13.92
69415;BMP280;56608;43.530;-5.652;2022-11-04T01:24:09;101788.84;;;13.92
69415;BMP280;56608;43.530;-5.652;2022-11-04T01:25:10;101794.59;;;13.94
69415;BMP280;56608;43.530;-5.652;2022-11-04T01:26:17;101799.34;;;13.90
69415;BMP280;56608;43.530;-5.652;2022-11-04T01:27:21;101793.94;;;13.90
69415;BMP280;56608;43.530;-5.652;2022-11-04T01:28:24;101790.06;;;13.91
69415;BMP280;56608;43.530;-5.652;2022-11-04T01:29:25;101791.12;;;13.94
69415;BMP280;56608;43.530;-5.652;2022-11-04T01:30:26;101801.09;;;13.97
69415;BMP280;56608;43.530;-5.652;2022-11-04T01:31:30;101794.47;;;13.98
69415;BMP280;56608;43.530;-5.652;2022-11-04T01:32:32;101798.28;;;14.00
69415;BMP280;56608;43.530;-5.652;2022-11-04T01:33:33;101801.41;;;13.99
69415;BMP280;56608;43.530;-5.652;2022-11-04T01:34:36;101799.87;;;13.98
69415;BMP280;56608;43.530;-5.652;2022-11-04T01:35:40;101802.28;;;13.96
69415;BMP280;56608;43.530;-5.652;2022-11-04T01:36:41;101807.91;;;14.01
69415;BMP280;56608;43.530;-5.652;2022-11-04T01:37:42;101809.41;;;14.02
69415;BMP280;56608;43.530;-5.652;2022-11-04T01:38:44;101796.69;;;14.03
69415;BMP280;56608;43.530;-5.652;2022-11-04T01:39:46;101798.94;;;14.04
69415;BMP280;56608;43.530;-5.652;2022-11-04T01:40:47;101821.31;;;14.05
69415;BMP280;56608;43.530;-5.652;2022-11-04T01:41:48;101810.50;;;14.05
69415;BMP280;56608;43.530;-5.652;2022-11-04T01:42:50;101791.28;;;14.03
69415;BMP280;56608;43.530;-5.652;2022-11-04T01:43:53;101796.16;;;14.08
69415;BMP280;56608;43.530;-5.652;2022-11-04T01:44:58;101797.97;;;14.11
69415;BMP280;56608;43.530;-5.652;2022-11-04T01:46:00;101798.09;;;14.07
69415;BMP280;56608;43.530;-5.652;2022-11-04T01:47:03;101804.56;;;14.10
69415;BMP280;56608;43.530;-5.652;2022-11-04T01:48:11;101798.53;;;14.06
69415;BMP280;56608;43.530;-5.652;2022-11-04T01:50:22;101791.94;;;14.07
69415;BMP280;56608;43.530;-5.652;2022-11-04T01:51:25;101797.00;;;14.05
69415;BMP280;56608;43.530;-5.652;2022-11-04T01:52:32;101800.38;;;14.09
69415;BMP280;56608;43.530;-5.652;2022-11-04T01:53:37;101789.56;;;14.09
69415;BMP280;56608;43.530;-5.652;2022-11-04T01:54:40;101796.16;;;14.08
69415;BMP280;56608;43.530;-5.652;2022-11-04T01:55:46;101790.41;;;14.06
69415;BMP280;56608;43.530;-5.652;2022-11-04T01:56:51;101786.94;;;14.05
69415;BMP280;56608;43.530;-5.652;2022-11-04T01:57:57;101788.59;;;14.03
69415;BMP280;56608;43.530;-5.652;2022-11-04T01:59:02;101786.66;;;14.03
69415;BMP280;56608;43.530;-5.652;2022-11-04T02:00:08;101799.44;;;13.99
69415;BMP280;56608;43.530;-5.652;2022-11-04T02:01:10;101787.59;;;13.97
69415;BMP280;56608;43.530;-5.652;2022-11-04T02:02:12;101783.38;;;13.96
69415;BMP280;56608;43.530;-5.652;2022-11-04T02:03:17;101789.84;;;13.98
69415;BMP280;56608;43.530;-5.652;2022-11-04T02:04:20;101796.00;;;13.99
69415;BMP280;56608;43.530;-5.652;2022-11-04T02:05:29;101790.59;;;13.99
69415;BMP280;56608;43.530;-5.652;2022-11-04T02:06:32;101797.94;;;13.98
69415;BMP280;56608;43.530;-5.652;2022-11-04T02:07:35;101785.63;;;13.97
69415;BMP280;56608;43.530;-5.652;2022-11-04T02:08:37;101783.66;;;13.98
69415;BMP280;56608;43.530;-5.652;2022-11-04T02:09:40;101782.19;;;13.97
69415;BMP280;56608;43.530;-5.652;2022-11-04T02:10:49;101782.19;;;13.97
69415;BMP280;56608;43.530;-5.652;2022-11-04T02:11:52;101783.66;;;13.98
69415;BMP280;56608;43.530;-5.652;2022-11-04T02:13:12;101779.91;;;13.95
69415;BMP280;56608;43.530;-5.652;2022-11-04T02:14:13;101778.38;;;13.94
69415;BMP280;56608;43.530;-5.652;2022-11-04T02:15:51;101774.59;;;13.92
69415;BMP280;56608;43.530;-5.652;2022-11-04T02:17:03;101769.94;;;13.92
69415;BMP280;56608;43.530;-5.652;2022-11-04T02:18:23;101779.13;;;13.95
69415;BMP280;56608;43.530;-5.652;2022-11-04T02:19:53;101789.19;;;13.94
69415;BMP280;56608;43.530;-5.652;2022-11-04T02:22:46;101785.72;;;13.94
69415;BMP280;56608;43.530;-5.652;2022-11-04T02:25:45;101789.19;;;13.94
69415;BMP280;56608;43.530;-5.652;2022-11-04T02:30:47;101798.38;;;13.97
69415;BMP280;56608;43.530;-5.652;2022-11-04T02:36:48;101797.50;;;14.00
69415;BMP280;56608;43.530;-5.652;2022-11-04T02:41:55;101783.50;;;14.05
69415;BMP280;56608;43.530;-5.652;2022-11-04T02:43:02;101799.69;;;14.05
69415;BMP280;56608;43.530;-5.652;2022-11-04T02:44:19;101785.00;;;14.06
69415;BMP280;56608;43.530;-5.652;2022-11-04T02:45:51;101791.19;;;14.06
69415;BMP280;56608;43.530;-5.652;2022-11-04T02:47:12;101789.22;;;14.07
69415;BMP280;56608;43.530;-5.652;2022-11-04T02:48:33;101796.56;;;14.06
69415;BMP280;56608;43.530;-5.652;2022-11-04T02:50:57;101815.06;;;14.08
69415;BMP280;56608;43.530;-5.652;2022-11-04T02:52:07;101800.78;;;14.07
69415;BMP280;56608;43.530;-5.652;2022-11-04T02:54:46;101805.03;;;14.08
69415;BMP280;56608;43.530;-5.652;2022-11-04T02:55:52;101814.94;;;14.12
69415;BMP280;56608;43.530;-5.652;2022-11-04T02:56:57;101812.66;;;14.10
69415;BMP280;56608;43.530;-5.652;2022-11-04T02:58:01;101802.63;;;14.11
69415;BMP280;56608;43.530;-5.652;2022-11-04T02:59:13;101803.37;;;14.11
69415;BMP280;56608;43.530;-5.652;2022-11-04T03:00:15;101807.94;;;14.14
69415;BMP280;56608;43.530;-5.652;2022-11-04T03:01:21;101814.53;;;14.13
69415;BMP280;56608;43.530;-5.652;2022-11-04T03:02:50;101800.59;;;14.15
69415;BMP280;56608;43.530;-5.652;2022-11-04T03:03:59;101827.84;;;14.20
69415;BMP280;56608;43.530;-5.652;2022-11-04T03:05:03;101813.56;;;14.20
69415;BMP280;56608;43.530;-5.652;2022-11-04T03:06:07;101811.19;;;14.22
69415;BMP280;56608;43.530;-5.652;2022-11-04T03:07:12;101810.44;;;14.21
69415;BMP280;56608;43.530;-5.652;2022-11-04T03:08:51;101809.69;;;14.21
69415;BMP280;56608;43.530;-5.652;2022-11-04T03:09:58;101819.72;;;14.20
69415;BMP280;56608;43.530;-5.652;2022-11-04T03:11:11;101815.50;;;14.19
69415;BMP280;56608;43.530;-5.652;2022-11-04T03:12:16;101811.62;;;14.20
69415;BMP280;56608;43.530;-5.652;2022-11-04T03:13:24;101812.81;;;14.19
69415;BMP280;56608;43.530;-5.652;2022-11-04T03:14:35;101834.09;;;14.17
69415;BMP280;56608;43.530;-5.652;2022-11-04T03:15:39;101810.94;;;14.16
69415;BMP280;56608;43.530;-5.652;2022-11-04T03:16:51;101814.41;;;14.17
69415;BMP280;56608;43.530;-5.652;2022-11-04T03:19:18;101814.88;;;14.15
69415;BMP280;56608;43.530;-5.652;2022-11-04T03:20:25;101817.56;;;14.15
69415;BMP280;56608;43.530;-5.652;2022-11-04T03:21:31;101821.88;;;14.13
69415;BMP280;56608;43.530;-5.652;2022-11-04T03:22:34;101822.63;;;14.13
69415;BMP280;56608;43.530;-5.652;2022-11-04T03:23:39;101825.34;;;14.13
69415;BMP280;56608;43.530;-5.652;2022-11-04T03:24:44;101823.06;;;14.12
69415;BMP280;56608;43.530;-5.652;2022-11-04T03:25:49;101825.47;;;14.10
69415;BMP280;56608;43.530;-5.652;2022-11-04T03:27:07;101827.41;;;14.09
69415;BMP280;56608;43.530;-5.652;2022-11-04T03:28:14;101832.81;;;14.09
69415;BMP280;56608;43.530;-5.652;2022-11-04T03:30:23;101831.28;;;14.08
69415;BMP280;56608;43.530;-5.652;2022-11-04T03:31:31;101831.28;;;14.08
69415;BMP280;56608;43.530;-5.652;2022-11-04T03:33:11;101825.47;;;14.10
69415;BMP280;56608;43.530;-5.652;2022-11-04T03:34:08;101830.09;;;14.09
69415;BMP280;56608;43.530;-5.652;2022-11-04T03:35:10;101827.41;;;14.09
69415;BMP280;56608;43.530;-5.652;2022-11-04T03:36:12;101821.22;;;14.08
69415;BMP280;56608;43.530;-5.652;2022-11-04T03:37:14;101825.00;;;14.11
69415;BMP280;56608;43.530;-5.652;2022-11-04T03:38:16;101812.66;;;14.10
69415;BMP280;56608;43.530;-5.652;2022-11-04T03:39:17;101819.59;;;14.11
69415;BMP280;56608;43.530;-5.652;2022-11-04T03:40:20;101819.59;;;14.11
69415;BMP280;56608;43.530;-5.652;2022-11-04T03:41:35;101819.59;;;14.11
69415;BMP280;56608;43.530;-5.652;2022-11-04T03:42:45;101820.78;;;14.10
69415;BMP280;56608;43.530;-5.652;2022-11-04T03:43:49;101826.84;;;14.14
69415;BMP280;56608;43.530;-5.652;2022-11-04T03:44:52;101821.75;;;14.16
69415;BMP280;56608;43.530;-5.652;2022-11-04T03:45:54;101820.91;;;14.19
69415;BMP280;56608;43.530;-5.652;2022-11-04T03:46:56;101819.06;;;14.16
69415;BMP280;56608;43.530;-5.652;2022-11-04T03:47:57;101811.62;;;14.20
69415;BMP280;56608;43.530;-5.652;2022-11-04T03:49:01;101814.31;;;14.20
69415;BMP280;56608;43.530;-5.652;2022-11-04T03:50:10;101802.63;;;14.23
69415;BMP280;56608;43.530;-5.652;2022-11-04T03:51:12;101813.03;;;14.25
69415;BMP280;56608;43.530;-5.652;2022-11-04T03:52:13;101824.94;;;14.27
69415;BMP280;56608;43.530;-5.652;2022-11-04T03:53:21;101822.97;;;14.28
69415;BMP280;56608;43.530;-5.652;2022-11-04T03:54:25;101827.53;;;14.31
69415;BMP280;56608;43.530;-5.652;2022-11-04T03:55:58;101820.59;;;14.30
69415;BMP280;56608;43.530;-5.652;2022-11-04T03:58:32;101818.31;;;14.28
69415;BMP280;56608;43.530;-5.652;2022-11-04T04:00:00;101838.34;;;14.31
69415;BMP280;56608;43.530;-5.652;2022-11-04T04:02:19;101825.25;;;14.29
69415;BMP280;56608;43.530;-5.652;2022-11-04T04:03:47;101822.22;;;14.27
69415;BMP280;56608;43.530;-5.652;2022-11-04T04:06:20;101834.03;;;14.33
69415;BMP280;56608;43.530;-5.652;2022-11-04T04:07:30;101832.81;;;14.34
69415;BMP280;56608;43.530;-5.652;2022-11-04T04:08:47;101825.94;;;14.33
69415;BMP280;56608;43.530;-5.652;2022-11-04T04:09:56;101831.00;;;14.31
69415;BMP280;56608;43.530;-5.652;2022-11-04T04:12:26;101820.06;;;14.35
69415;BMP280;56608;43.530;-5.652;2022-11-04T04:13:35;101825.81;;;14.37
69415;BMP280;56608;43.530;-5.652;2022-11-04T04:14:53;101818.88;;;14.36
69415;BMP280;56608;43.530;-5.652;2022-11-04T04:18:21;101838.91;;;14.38
69415;BMP280;56608;43.530;-5.652;2022-11-04T04:19:25;101828.84;;;14.39
69415;BMP280;56608;43.530;-5.652;2022-11-04T04:20:28;101841.59;;;14.38
69415;BMP280;56608;43.530;-5.652;2022-11-04T04:21:36;101824.19;;;14.39
69415;BMP280;56608;43.530;-5.652;2022-11-04T04:22:42;101822.69;;;14.38
69415;BMP280;56608;43.530;-5.652;2022-11-04T04:23:48;101837.25;;;14.41
69415;BMP280;56608;43.530;-5.652;2022-11-04T04:25:11;101826.44;;;14.41
69415;BMP280;56608;43.530;-5.652;2022-11-04T04:26:34;101819.44;;;14.43
69415;BMP280;56608;43.530;-5.652;2022-11-04T04:27:58;101830.56;;;14.45
69415;BMP280;56608;43.530;-5.652;2022-11-04T04:29:02;101834.13;;;14.42
69415;BMP280;56608;43.530;-5.652;2022-11-04T04:30:09;101831.75;;;14.44
69415;BMP280;56608;43.530;-5.652;2022-11-04T04:31:14;101829.06;;;14.44
69415;BMP280;56608;43.530;-5.652;2022-11-04T04:32:48;101831.75;;;14.44
69415;BMP280;56608;43.530;-5.652;2022-11-04T04:33:50;101825.25;;;14.42
69415;BMP280;56608;43.530;-5.652;2022-11-04T04:34:51;101825.59;;;14.44
69415;BMP280;56608;43.530;-5.652;2022-11-04T04:36:15;101819.09;;;14.41
69415;BMP280;56608;43.530;-5.652;2022-11-04T04:37:21;101817.91;;;14.42
69415;BMP280;56608;43.530;-5.652;2022-11-04T04:38:27;101807.72;;;14.46
69415;BMP280;56608;43.530;-5.652;2022-11-04T04:39:51;101817.16;;;14.42
69415;BMP280;56608;43.530;-5.652;2022-11-04T04:41:25;101825.59;;;14.44
69415;BMP280;56608;43.530;-5.652;2022-11-04T04:42:46;101832.06;;;14.46
69415;BMP280;56608;43.530;-5.652;2022-11-04T04:44:19;101826.34;;;14.44
69415;BMP280;56608;43.530;-5.652;2022-11-04T04:45:42;101841.38;;;14.45
69415;BMP280;56608;43.530;-5.652;2022-11-04T04:46:48;101834.13;;;14.42
69415;BMP280;56608;43.530;-5.652;2022-11-04T04:47:51;101836.50;;;14.40
69415;BMP280;56608;43.530;-5.652;2022-11-04T04:48:52;101843.13;;;14.39
69415;BMP280;56608;43.530;-5.652;2022-11-04T04:49:56;101839.53;;;14.42
69415;BMP280;56608;43.530;-5.652;2022-11-04T04:50:58;101836.41;;;14.44
69415;BMP280;56608;43.530;-5.652;2022-11-04T04:52:04;101861.81;;;14.46
69415;BMP280;56608;43.530;-5.652;2022-11-04T04:53:09;101835.09;;;14.48
69415;BMP280;56608;43.530;-5.652;2022-11-04T04:54:11;101841.59;;;14.51
69415;BMP280;56608;43.530;-5.652;2022-11-04T04:55:13;101844.31;;;14.51
69415;BMP280;56608;43.530;-5.652;2022-11-04T04:56:14;101850.78;;;14.54
69415;BMP280;56608;43.530;-5.652;2022-11-04T04:57:16;101852.31;;;14.55
69415;BMP280;56608;43.530;-5.652;2022-11-04T04:58:17;101845.72;;;14.56
69415;BMP280;56608;43.530;-5.652;2022-11-04T04:59:19;101852.66;;;14.57
69415;BMP280;56608;43.530;-5.652;2022-11-04T05:00:20;101857.63;;;14.58
69415;BMP280;56608;43.530;-5.652;2022-11-04T05:01:22;101878.81;;;14.60
69415;BMP280;56608;43.530;-5.652;2022-11-04T05:02:23;101859.59;;;14.58
69415;BMP280;56608;43.530;-5.652;2022-11-04T05:03:27;101862.28;;;14.58
69415;BMP280;56608;43.530;-5.652;2022-11-04T05:04:28;101866.81;;;14.61
69415;BMP280;56608;43.530;-5.652;2022-11-04T05:05:30;101863.25;;;14.64
69415;BMP280;56608;43.530;-5.652;2022-11-04T05:06:31;101864.00;;;14.64
69415;BMP280;56608;43.530;-5.652;2022-11-04T05:07:31;101871.34;;;14.64
69415;BMP280;56608;43.530;-5.652;2022-11-04T05:08:33;101867.47;;;14.65
69415;BMP280;56608;43.530;-5.652;2022-11-04T05:09:35;101875.16;;;14.66
69415;BMP280;56608;43.530;-5.652;2022-11-04T05:10:37;101868.97;;;14.66
69415;BMP280;56608;43.530;-5.652;2022-11-04T05:11:39;101872.00;;;14.68
69415;BMP280;56608;43.530;-5.652;2022-11-04T05:12:40;101878.19;;;14.68
69415;BMP280;56608;43.530;-5.652;2022-11-04T05:14:00;101875.47;;;14.68
69415;BMP280;56608;43.530;-5.652;2022-11-04T05:15:02;101881.66;;;14.69
69415;BMP280;56608;43.530;-5.652;2022-11-04T05:16:05;101884.66;;;14.71
69415;BMP280;56608;43.530;-5.652;2022-11-04T05:17:07;101887.37;;;14.71
69415;BMP280;56608;43.530;-5.652;2022-11-04T05:18:09;101892.78;;;14.71
69415;BMP280;56608;43.530;-5.652;2022-11-04T05:19:09;101883.69;;;14.77
69415;BMP280;56608;43.530;-5.652;2022-11-04T05:20:13;101901.84;;;14.77
69415;BMP280;56608;43.530;-5.652;2022-11-04T05:21:14;101896.34;;;14.80
69415;BMP280;56608;43.530;-5.652;2022-11-04T05:22:16;101902.56;;;14.81
69415;BMP280;56608;43.530;-5.652;2022-11-04T05:23:17;101901.00;;;14.80
69415;BMP280;56608;43.530;-5.652;2022-11-04T05:24:19;101906.41;;;14.80
69415;BMP280;56608;43.530;-5.652;2022-11-04T05:25:20;101904.91;;;14.79
69415;BMP280;56608;43.530;-5.652;2022-11-04T05:26:21;101899.59;;;14.75
69415;BMP280;56608;43.530;-5.652;2022-11-04T05:27:25;101910.31;;;14.79
69415;BMP280;56608;43.530;-5.652;2022-11-04T05:28:26;101894.50;;;14.77
69415;BMP280;56608;43.530;-5.652;2022-11-04T05:29:28;101897.97;;;14.78
69415;BMP280;56608;43.530;-5.652;2022-11-04T05:30:29;101894.94;;;14.76
69415;BMP280;56608;43.530;-5.652;2022-11-04T05:31:30;101918.56;;;14.75
69415;BMP280;56608;43.530;-5.652;2022-11-04T05:32:32;101913.56;;;14.74
69415;BMP280;56608;43.530;-5.652;2022-11-04T05:33:33;101909.34;;;14.73
69415;BMP280;56608;43.530;-5.652;2022-11-04T05:34:35;101913.22;;;14.72
69415;BMP280;56608;43.530;-5.652;2022-11-04T05:35:36;101918.63;;;14.72
69415;BMP280;56608;43.530;-5.652;2022-11-04T05:36:38;101915.19;;;14.71
69415;BMP280;56608;43.530;-5.652;2022-11-04T05:37:39;101913.66;;;14.70
69415;BMP280;56608;43.530;-5.652;2022-11-04T05:38:41;101926.75;;;14.72
69415;BMP280;56608;43.530;-5.652;2022-11-04T05:39:43;101917.03;;;14.74
69415;BMP280;56608;43.530;-5.652;2022-11-04T05:40:44;101910.84;;;14.74
69415;BMP280;56608;43.530;-5.652;2022-11-04T05:41:46;101926.34;;;14.73
69415;BMP280;56608;43.530;-5.652;2022-11-04T05:42:49;101919.41;;;14.72
69415;BMP280;56608;43.530;-5.652;2022-11-04T05:43:55;101919.81;;;14.71
69415;BMP280;56608;43.530;-5.652;2022-11-04T05:44:57;101929.78;;;14.74
69415;BMP280;56608;43.530;-5.652;2022-11-04T05:45:59;101933.69;;;14.73
69415;BMP280;56608;43.530;-5.652;2022-11-04T05:47:00;101933.69;;;14.73
69415;BMP280;56608;43.530;-5.652;2022-11-04T05:48:04;101927.09;;;14.74
69415;BMP280;56608;43.530;-5.652;2022-11-04T05:49:05;101950.56;;;14.77
69415;BMP280;56608;43.530;-5.652;2022-11-04T05:50:07;101940.06;;;14.79
69415;BMP280;56608;43.530;-5.652;2022-11-04T05:51:07;101936.59;;;14.78
69415;BMP280;56608;43.530;-5.652;2022-11-04T05:52:14;101952.41;;;14.80
69415;BMP280;56608;43.530;-5.652;2022-11-04T05:53:15;101942.34;;;14.80
69415;BMP280;56608;43.530;-5.652;2022-11-04T05:54:17;101952.75;;;14.82
69415;BMP280;56608;43.530;-5.652;2022-11-04T05:55:18;101967.50;;;14.81
69415;BMP280;56608;43.530;-5.652;2022-11-04T05:56:20;101960.00;;;14.85
69415;BMP280;56608;43.530;-5.652;2022-11-04T05:57:20;101966.94;;;14.86
69415;BMP280;56608;43.530;-5.652;2022-11-04T05:58:24;101961.84;;;14.88
69415;BMP280;56608;43.530;-5.652;2022-11-04T05:59:25;101969.19;;;14.87
69415;BMP280;56608;43.530;-5.652;2022-11-04T06:00:28;101974.81;;;14.93
69415;BMP280;56608;43.530;-5.652;2022-11-04T06:01:38;101961.63;;;14.95
69415;BMP280;56608;43.530;-5.652;2022-11-04T06:02:40;101970.94;;;14.94
69415;BMP280;56608;43.530;-5.652;2022-11-04T06:03:41;101974.41;;;14.95
69415;BMP280;56608;43.530;-5.652;2022-11-04T06:04:42;101978.28;;;14.94
69415;BMP280;56608;43.530;-5.652;2022-11-04T06:05:43;101971.38;;;14.93
69415;BMP280;56608;43.530;-5.652;2022-11-04T06:06:45;101973.34;;;14.92
69415;BMP280;56608;43.530;-5.652;2022-11-04T06:07:45;101979.94;;;14.91
69415;BMP280;56608;43.530;-5.652;2022-11-04T06:08:49;101974.81;;;14.93
69415;BMP280;56608;43.530;-5.652;2022-11-04T06:09:50;101984.47;;;14.94
69415;BMP280;56608;43.530;-5.652;2022-11-04T06:10:54;101981.00;;;14.94
69415;BMP280;56608;43.530;-5.652;2022-11-04T06:11:55;101990.75;;;14.91
69415;BMP280;56608;43.530;-5.652;2022-11-04T06:12:56;101983.47;;;14.88
69415;BMP280;56608;43.530;-5.652;2022-11-04T06:14:00;101988.91;;;14.88
69415;BMP280;56608;43.530;-5.652;2022-11-04T06:15:02;101976.25;;;14.85
69415;BMP280;56608;43.530;-5.652;2022-11-04T06:16:04;101985.97;;;14.82
69415;BMP280;56608;43.530;-5.652;2022-11-04T06:17:05;101982.94;;;14.80
69415;BMP280;56608;43.530;-5.652;2022-11-04T06:18:07;101997.72;;;14.76
69415;BMP280;56608;43.530;-5.652;2022-11-04T06:19:07;101997.72;;;14.76
69415;BMP280;56608;43.530;-5.652;2022-11-04T06:20:09;101998.50;;;14.76
69415;BMP280;56608;43.530;-5.652;2022-11-04T06:22:19;102007.81;;;14.75
69415;BMP280;56608;43.530;-5.652;2022-11-04T06:23:20;102008.66;;;14.72
69415;BMP280;56608;43.530;-5.652;2022-11-04T06:24:21;101992.22;;;14.67
69415;BMP280;56608;43.530;-5.652;2022-11-04T06:25:23;101992.84;;;14.58
69415;BMP280;56608;43.530;-5.652;2022-11-04T06:26:25;101995.28;;;14.53
69415;BMP280;56608;43.530;-5.652;2022-11-04T06:27:27;101986.37;;;14.56
69415;BMP280;56608;43.530;-5.652;2022-11-04T06:28:29;101989.47;;;14.54
69415;BMP280;56608;43.530;-5.652;2022-11-04T06:29:29;101999.94;;;14.52
69415;BMP280;56608;43.530;-5.652;2022-11-04T06:30:31;101988.38;;;14.52
69415;BMP280;56608;43.530;-5.652;2022-11-04T06:31:31;101995.06;;;14.47
69415;BMP280;56608;43.530;-5.652;2022-11-04T06:32:33;102001.56;;;14.50
69415;BMP280;56608;43.530;-5.652;2022-11-04T06:33:35;101990.75;;;14.50
69415;BMP280;56608;43.530;-5.652;2022-11-04T06:34:37;102001.56;;;14.50
69415;BMP280;56608;43.530;-5.652;2022-11-04T06:35:40;101994.66;;;14.48
69415;BMP280;56608;43.530;-5.652;2022-11-04T06:36:42;101995.75;;;14.51
69415;BMP280;56608;43.530;-5.652;2022-11-04T06:37:43;101991.53;;;14.50
69415;BMP280;56608;43.530;-5.652;2022-11-04T06:38:44;101999.63;;;14.50
69415;BMP280;56608;43.530;-5.652;2022-11-04T06:39:46;101999.72;;;14.46